createdAt,value
2022-11-07T00:02:43.399Z,2.09
2022-11-07T00:08:09.605Z,2.22
2022-11-07T00:13:35.008Z,2.07
2022-11-07T00:19:05.093Z,1.95
2022-11-07T00:24:34.981Z,2.01
2022-11-07T00:30:01.753Z,2.03
2022-11-07T00:35:26.312Z,2.03
2022-11-07T00:40:57.728Z,1.93
2022-11-07T00:46:27.332Z,1.92
2022-11-07T00:51:57.320Z,1.89
2022-11-07T00:57:27.069Z,1.91
2022-11-07T01:03:10.335Z,1.95
2022-11-07T01:08:39.866Z,1.97
2022-11-07T01:14:10.021Z,2.06
2022-11-07T01:19:38.708Z,2.08
2022-11-07T01:25:10.667Z,2.09
2022-11-07T01:30:40.598Z,2.03
2022-11-07T01:36:12.487Z,2.08
2022-11-07T01:41:38.826Z,2.08
2022-11-07T01:47:08.324Z,2.10
2022-11-07T01:52:40.300Z,2.05
2022-11-07T01:58:09.153Z,2.07
2022-11-07T02:03:38.883Z,2.06
2022-11-07T02:09:02.975Z,2.04
2022-11-07T02:14:29.317Z,1.96
2022-11-07T02:19:58.512Z,1.95
2022-11-07T02:25:25.136Z,1.99
2022-11-07T02:30:53.637Z,1.95
2022-11-07T02:36:20.934Z,1.82
2022-11-07T02:41:47.191Z,1.79
2022-11-07T02:47:10.712Z,1.88
2022-11-07T02:52:39.788Z,1.85
2022-11-07T02:58:06.620Z,1.72
2022-11-07T03:03:32.421Z,1.82
2022-11-07T03:09:02.109Z,1.84
2022-11-07T03:14:26.647Z,1.83
2022-11-07T03:19:50.527Z,1.82
2022-11-07T03:25:19.816Z,1.82
2022-11-07T03:30:53.895Z,1.72
2022-11-07T03:36:17.159Z,1.79
2022-11-07T03:41:45.995Z,1.70
2022-11-07T03:47:11.997Z,1.69
2022-11-07T03:52:40.861Z,1.71
2022-11-07T03:58:09.834Z,1.74
2022-11-07T04:03:40.740Z,1.77
2022-11-07T04:09:09.053Z,1.78
2022-11-07T04:14:50.430Z,1.80
2022-11-07T04:20:16.973Z,1.62
2022-11-07T04:26:01.677Z,1.68
2022-11-07T04:31:25.129Z,1.75
2022-11-07T04:36:54.190Z,1.83
2022-11-07T04:42:19.869Z,1.75
2022-11-07T04:47:49.039Z,1.76
2022-11-07T04:53:19.652Z,1.69
2022-11-07T04:58:43.355Z,1.73
2022-11-07T05:04:12.007Z,1.70
2022-11-07T05:09:46.733Z,1.68
2022-11-07T05:15:12.166Z,1.69
2022-11-07T05:20:41.533Z,1.66
2022-11-07T05:26:11.996Z,1.70
2022-11-07T05:31:40.785Z,1.84
2022-11-07T05:37:10.800Z,1.87
2022-11-07T05:42:36.592Z,1.79
2022-11-07T05:48:01.899Z,1.77
2022-11-07T05:53:30.980Z,1.83
2022-11-07T05:58:55.815Z,1.99
2022-11-07T06:04:19.757Z,2.01
2022-11-07T06:09:48.803Z,1.86
2022-11-07T06:15:15.247Z,1.80
2022-11-07T06:20:38.797Z,1.83
2022-11-07T06:26:04.549Z,1.72
2022-11-07T06:31:35.531Z,1.78
2022-11-07T06:37:03.091Z,1.93
2022-11-07T06:42:29.827Z,2.00
2022-11-07T06:47:56.446Z,2.00
2022-11-07T06:53:25.716Z,2.07
2022-11-07T06:58:55.032Z,2.23
2022-11-07T07:04:25.461Z,2.43
2022-11-07T07:09:50.887Z,2.58
2022-11-07T07:15:13.297Z,2.58
2022-11-07T07:20:43.372Z,2.77
2022-11-07T07:26:10.074Z,2.69
2022-11-07T07:31:38.967Z,2.77
2022-11-07T07:37:04.242Z,2.69
2022-11-07T07:42:33.284Z,2.67
2022-11-07T07:48:02.629Z,2.57
2022-11-07T07:53:33.425Z,2.95
2022-11-07T07:59:02.686Z,3.09
2022-11-07T08:04:32.174Z,3.25
2022-11-07T08:10:27.108Z,3.32
2022-11-07T08:15:54.612Z,3.10
2022-11-07T08:21:23.737Z,3.34
2022-11-07T08:26:54.736Z,4.11
2022-11-07T08:32:24.462Z,5.79
2022-11-07T08:37:53.777Z,5.07
2022-11-07T08:43:24.807Z,5.37
2022-11-07T08:48:53.674Z,7.04
2022-11-07T08:54:25.761Z,8.54
2022-11-07T08:59:58.462Z,7.05
2022-11-07T09:05:28.203Z,7.52
2022-11-07T09:11:02.271Z,7.96
2022-11-07T09:16:32.557Z,8.17
2022-11-07T09:22:00.975Z,8.22
2022-11-07T09:27:29.789Z,7.39
2022-11-07T09:33:01.602Z,8.55
2022-11-07T09:38:32.603Z,10.05
2022-11-07T09:44:32.361Z,11.27
2022-11-07T09:50:08.631Z,11.27
2022-11-07T09:55:40.001Z,11.02
2022-11-07T10:01:14.813Z,11.30
2022-11-07T10:06:49.322Z,11.28
2022-11-07T10:12:31.875Z,11.43
2022-11-07T10:18:08.249Z,11.64
2022-11-07T10:23:54.193Z,12.08
2022-11-07T10:29:24.496Z,12.00
2022-11-07T10:35:02.791Z,11.46
2022-11-07T10:40:38.555Z,11.37
2022-11-07T10:46:17.160Z,11.23
2022-11-07T10:51:46.830Z,11.09
2022-11-07T10:57:20.062Z,11.08
2022-11-07T11:02:50.187Z,11.13
2022-11-07T11:08:22.784Z,11.12
2022-11-07T11:14:03.311Z,10.53
2022-11-07T11:19:40.818Z,10.91
2022-11-07T11:25:19.275Z,9.31
2022-11-07T11:30:55.965Z,9.94
2022-11-07T11:36:28.578Z,10.49
2022-11-07T11:41:59.957Z,10.87
2022-11-07T11:47:38.203Z,10.83
2022-11-07T11:53:12.697Z,10.85
2022-11-07T11:58:48.642Z,10.97
2022-11-07T12:04:47.660Z,10.90
2022-11-07T12:10:25.060Z,10.90
2022-11-07T12:16:09.832Z,10.99
2022-11-07T12:21:52.215Z,11.07
2022-11-07T12:27:30.456Z,11.02
2022-11-07T12:33:10.956Z,10.94
2022-11-07T12:38:59.944Z,10.83
2022-11-07T12:44:53.083Z,10.73
2022-11-07T12:50:34.387Z,10.63
2022-11-07T12:56:13.596Z,10.84
2022-11-07T13:01:49.129Z,10.83
2022-11-07T13:07:26.340Z,10.72
2022-11-07T13:13:02.286Z,10.68
2022-11-07T13:18:30.850Z,10.56
2022-11-07T13:24:06.964Z,10.42
2022-11-07T13:29:39.427Z,10.03
2022-11-07T13:35:10.401Z,9.50
2022-11-07T13:40:41.141Z,9.51
2022-11-07T13:46:19.376Z,9.44
2022-11-07T13:51:50.358Z,9.24
2022-11-07T13:57:23.233Z,9.01
2022-11-07T14:02:55.629Z,8.87
2022-11-07T14:08:29.195Z,8.70
2022-11-07T14:13:58.177Z,8.41
2022-11-07T14:19:30.324Z,7.71
2022-11-07T14:24:59.289Z,7.51
2022-11-07T14:30:29.732Z,7.60
2022-11-07T14:36:06.717Z,7.68
2022-11-07T14:41:38.758Z,7.68
2022-11-07T14:47:09.085Z,7.60
2022-11-07T14:52:49.336Z,7.59
2022-11-07T14:58:19.433Z,7.57
2022-11-07T15:03:54.385Z,7.50
2022-11-07T15:09:35.660Z,7.41
2022-11-07T15:15:12.154Z,7.21
2022-11-07T15:20:40.980Z,6.60
2022-11-07T15:26:22.003Z,6.34
2022-11-07T15:31:51.658Z,6.22
2022-11-07T15:37:22.584Z,6.24
2022-11-07T15:42:53.872Z,6.33
2022-11-07T15:48:25.150Z,6.45
2022-11-07T15:53:53.812Z,6.39
2022-11-07T15:59:24.996Z,6.41
2022-11-07T16:04:54.113Z,6.32
2022-11-07T16:10:25.800Z,6.33
2022-11-07T16:15:59.488Z,6.30
2022-11-07T16:21:27.887Z,6.07
2022-11-07T16:26:56.984Z,5.95
2022-11-07T16:32:27.895Z,5.76
2022-11-07T16:38:00.084Z,5.62
2022-11-07T16:43:30.135Z,5.55
2022-11-07T16:49:07.848Z,5.42
2022-11-07T16:54:37.145Z,5.35
2022-11-07T17:00:07.037Z,5.22
2022-11-07T17:05:38.197Z,5.14
2022-11-07T17:11:09.725Z,5.10
2022-11-07T17:16:44.726Z,5.07
2022-11-07T17:22:17.827Z,5.04
2022-11-07T17:27:47.367Z,4.89
2022-11-07T17:33:15.864Z,4.84
2022-11-07T17:38:46.898Z,4.77
2022-11-07T17:44:16.857Z,4.83
2022-11-07T17:49:47.061Z,4.92
2022-11-07T17:55:19.574Z,4.95
2022-11-07T18:00:52.050Z,4.96
2022-11-07T18:06:23.578Z,4.94
2022-11-07T18:12:02.529Z,4.92
2022-11-07T18:17:36.655Z,4.95
2022-11-07T18:23:05.709Z,4.99
2022-11-07T18:28:39.847Z,4.72
2022-11-07T18:34:11.689Z,4.65
2022-11-07T18:39:43.457Z,4.63
2022-11-07T18:45:21.509Z,4.50
2022-11-07T18:50:53.204Z,4.34
2022-11-07T18:56:23.668Z,4.35
2022-11-07T19:01:56.416Z,4.25
2022-11-07T19:07:26.658Z,4.08
2022-11-07T19:12:58.539Z,4.16
2022-11-07T19:18:31.819Z,4.17
2022-11-07T19:24:06.377Z,4.14
2022-11-07T19:29:36.338Z,3.99
2022-11-07T19:35:12.593Z,3.91
2022-11-07T19:40:43.562Z,3.92
2022-11-07T19:46:15.802Z,3.91
2022-11-07T19:51:47.511Z,3.84
2022-11-07T19:57:18.035Z,3.71
2022-11-07T20:02:47.909Z,3.74
2022-11-07T20:08:20.600Z,3.56
2022-11-07T20:13:50.319Z,3.44
2022-11-07T20:19:19.130Z,3.40
2022-11-07T20:24:50.712Z,3.42
2022-11-07T20:30:20.482Z,3.41
2022-11-07T20:36:02.608Z,3.54
2022-11-07T20:41:32.875Z,3.58
2022-11-07T20:47:11.926Z,3.52
2022-11-07T20:52:42.599Z,3.49
2022-11-07T20:58:13.671Z,3.41
2022-11-07T21:03:43.137Z,3.44
2022-11-07T21:09:12.435Z,3.44
2022-11-07T21:14:44.819Z,3.45
2022-11-07T21:20:14.995Z,3.38
2022-11-07T21:25:47.853Z,3.29
2022-11-07T21:31:21.853Z,3.14
2022-11-07T21:36:51.231Z,2.98
2022-11-07T21:42:20.170Z,2.79
2022-11-07T21:47:50.521Z,2.66
2022-11-07T21:53:18.977Z,2.57
2022-11-07T21:58:47.942Z,2.51
2022-11-07T22:04:18.274Z,2.55
2022-11-07T22:09:47.044Z,2.48
2022-11-07T22:15:16.319Z,2.42
2022-11-07T22:20:46.644Z,2.40
2022-11-07T22:26:18.815Z,2.35
2022-11-07T22:31:48.132Z,2.32
2022-11-07T22:37:18.453Z,2.25
2022-11-07T22:42:47.097Z,2.15
2022-11-07T22:48:16.146Z,2.09
2022-11-07T22:53:47.739Z,2.07
2022-11-07T22:59:16.963Z,2.05
2022-11-07T23:04:46.180Z,2.16
2022-11-07T23:10:17.037Z,2.20
2022-11-07T23:15:46.228Z,2.22
2022-11-07T23:21:15.326Z,1.99
2022-11-07T23:26:45.603Z,1.86
2022-11-07T23:32:14.416Z,1.79
2022-11-07T23:37:43.191Z,1.75
2022-11-07T23:43:13.427Z,1.81
2022-11-07T23:48:59.852Z,1.88
2022-11-07T23:54:46.654Z,1.96
